sensor_id;sensor_type;location;lat;lon;timestamp;P1;durP1;ratioP1;P2;durP2;ratioP2
23658;SDS011;12006;42.666;23.326;2023-06-22T00:01:57;10.23;;;9.23;;
23658;SDS011;12006;42.666;23.326;2023-06-22T00:04:23;12.75;;;9.20;;
23658;SDS011;12006;42.666;23.326;2023-06-22T00:06:49;10.70;;;8.98;;
23658;SDS011;12006;42.666;23.326;2023-06-22T00:09:14;9.77;;;8.77;;
23658;SDS011;12006;42.666;23.326;2023-06-22T00:11:39;9.30;;;8.30;;
23658;SDS011;12006;42.666;23.326;2023-06-22T00:14:05;11.65;;;9.10;;
23658;SDS011;12006;42.666;23.326;2023-06-22T00:16:33;9.75;;;8.82;;
23658;SDS011;12006;42.666;23.326;2023-06-22T00:18:59;9.75;;;8.52;;
23658;SDS011;12006;42.666;23.326;2023-06-22T00:21:27;10.30;;;9.25;;
23658;SDS011;12006;42.666;23.326;2023-06-22T00:23:52;9.90;;;8.95;;
23658;SDS011;12006;42.666;23.326;2023-06-22T00:26:19;10.07;;;8.70;;
23658;SDS011;12006;42.666;23.326;2023-06-22T00:28:45;9.95;;;8.38;;
23658;SDS011;12006;42.666;23.326;2023-06-22T00:31:11;12.13;;;9.27;;
23658;SDS011;12006;42.666;23.326;2023-06-22T00:33:36;10.27;;;9.27;;
23658;SDS011;12006;42.666;23.326;2023-06-22T00:36:02;12.25;;;9.38;;
23658;SDS011;12006;42.666;23.326;2023-06-22T00:38:28;10.82;;;9.68;;
23658;SDS011;12006;42.666;23.326;2023-06-22T00:40:54;10.98;;;9.25;;
23658;SDS011;12006;42.666;23.326;2023-06-22T00:43:19;10.43;;;8.82;;
23658;SDS011;12006;42.666;23.326;2023-06-22T00:45:45;13.10;;;9.57;;
23658;SDS011;12006;42.666;23.326;2023-06-22T00:48:10;11.02;;;9.80;;
23658;SDS011;12006;42.666;23.326;2023-06-22T00:50:37;10.98;;;9.00;;
23658;SDS011;12006;42.666;23.326;2023-06-22T00:53:03;10.52;;;9.40;;
23658;SDS011;12006;42.666;23.326;2023-06-22T00:55:36;12.02;;;10.18;;
23658;SDS011;12006;42.666;23.326;2023-06-22T00:58:04;10.82;;;9.73;;
23658;SDS011;12006;42.666;23.326;2023-06-22T01:00:33;9.93;;;8.93;;
23658;SDS011;12006;42.666;23.326;2023-06-22T01:02:58;11.75;;;10.30;;
23658;SDS011;12006;42.666;23.326;2023-06-22T01:05:24;11.43;;;10.27;;
23658;SDS011;12006;42.666;23.326;2023-06-22T01:07:58;11.32;;;9.90;;
23658;SDS011;12006;42.666;23.326;2023-06-22T01:12:55;11.77;;;10.30;;
23658;SDS011;12006;42.666;23.326;2023-06-22T01:18:14;12.27;;;11.00;;
23658;SDS011;12006;42.666;23.326;2023-06-22T01:20:42;10.55;;;9.50;;
23658;SDS011;12006;42.666;23.326;2023-06-22T01:25:45;14.38;;;10.60;;
23658;SDS011;12006;42.666;23.326;2023-06-22T01:31:20;10.93;;;9.35;;
23658;SDS011;12006;42.666;23.326;2023-06-22T01:33:49;11.27;;;9.98;;
23658;SDS011;12006;42.666;23.326;2023-06-22T01:36:20;9.93;;;8.93;;
23658;SDS011;12006;42.666;23.326;2023-06-22T01:38:47;10.50;;;9.50;;
23658;SDS011;12006;42.666;23.326;2023-06-22T01:41:13;9.80;;;8.90;;
23658;SDS011;12006;42.666;23.326;2023-06-22T01:43:39;12.32;;;9.35;;
23658;SDS011;12006;42.666;23.326;2023-06-22T01:46:06;11.20;;;10.15;;
23658;SDS011;12006;42.666;23.326;2023-06-22T01:48:32;11.02;;;9.93;;
23658;SDS011;12006;42.666;23.326;2023-06-22T01:50:58;10.30;;;9.27;;
23658;SDS011;12006;42.666;23.326;2023-06-22T01:53:24;11.57;;;10.38;;
23658;SDS011;12006;42.666;23.326;2023-06-22T01:55:50;10.98;;;9.88;;
23658;SDS011;12006;42.666;23.326;2023-06-22T01:58:15;10.77;;;9.73;;
23658;SDS011;12006;42.666;23.326;2023-06-22T02:00:44;10.57;;;9.38;;
23658;SDS011;12006;42.666;23.326;2023-06-22T02:03:23;11.55;;;9.50;;
23658;SDS011;12006;42.666;23.326;2023-06-22T02:05:56;10.48;;;9.48;;
23658;SDS011;12006;42.666;23.326;2023-06-22T02:08:38;9.68;;;8.77;;
23658;SDS011;12006;42.666;23.326;2023-06-22T02:11:09;9.98;;;8.65;;
23658;SDS011;12006;42.666;23.326;2023-06-22T02:13:37;12.80;;;9.88;;
23658;SDS011;12006;42.666;23.326;2023-06-22T02:16:05;10.52;;;9.43;;
23658;SDS011;12006;42.666;23.326;2023-06-22T02:18:31;10.18;;;9.10;;
23658;SDS011;12006;42.666;23.326;2023-06-22T02:20:56;11.73;;;10.63;;
23658;SDS011;12006;42.666;23.326;2023-06-22T02:23:22;13.32;;;10.50;;
23658;SDS011;12006;42.666;23.326;2023-06-22T02:25:47;9.68;;;8.75;;
23658;SDS011;12006;42.666;23.326;2023-06-22T02:28:12;10.45;;;9.35;;
23658;SDS011;12006;42.666;23.326;2023-06-22T02:30:38;10.65;;;9.52;;
23658;SDS011;12006;42.666;23.326;2023-06-22T02:33:03;11.07;;;8.60;;
23658;SDS011;12006;42.666;23.326;2023-06-22T02:35:29;10.07;;;9.07;;
23658;SDS011;12006;42.666;23.326;2023-06-22T02:38:00;10.73;;;9.23;;
23658;SDS011;12006;42.666;23.326;2023-06-22T02:40:28;10.05;;;9.05;;
23658;SDS011;12006;42.666;23.326;2023-06-22T02:42:54;10.35;;;8.85;;
23658;SDS011;12006;42.666;23.326;2023-06-22T02:45:20;10.07;;;8.88;;
23658;SDS011;12006;42.666;23.326;2023-06-22T02:47:45;10.02;;;8.85;;
23658;SDS011;12006;42.666;23.326;2023-06-22T02:50:12;9.80;;;8.90;;
23658;SDS011;12006;42.666;23.326;2023-06-22T02:52:38;10.20;;;9.23;;
23658;SDS011;12006;42.666;23.326;2023-06-22T02:55:04;11.07;;;9.55;;
23658;SDS011;12006;42.666;23.326;2023-06-22T02:57:30;10.80;;;9.70;;
23658;SDS011;12006;42.666;23.326;2023-06-22T02:59:55;10.32;;;9.32;;
23658;SDS011;12006;42.666;23.326;2023-06-22T03:02:21;10.18;;;8.77;;
23658;SDS011;12006;42.666;23.326;2023-06-22T03:04:46;10.13;;;9.05;;
23658;SDS011;12006;42.666;23.326;2023-06-22T03:07:14;9.95;;;8.85;;
23658;SDS011;12006;42.666;23.326;2023-06-22T03:09:39;12.02;;;9.18;;
23658;SDS011;12006;42.666;23.326;2023-06-22T03:12:05;11.35;;;9.27;;
23658;SDS011;12006;42.666;23.326;2023-06-22T03:14:31;10.40;;;9.30;;
23658;SDS011;12006;42.666;23.326;2023-06-22T03:16:57;10.70;;;9.00;;
23658;SDS011;12006;42.666;23.326;2023-06-22T03:19:27;10.25;;;9.20;;
23658;SDS011;12006;42.666;23.326;2023-06-22T03:21:54;10.98;;;9.75;;
23658;SDS011;12006;42.666;23.326;2023-06-22T03:24:19;9.82;;;8.82;;
23658;SDS011;12006;42.666;23.326;2023-06-22T03:26:45;10.00;;;9.00;;
23658;SDS011;12006;42.666;23.326;2023-06-22T03:29:11;11.00;;;9.38;;
23658;SDS011;12006;42.666;23.326;2023-06-22T03:31:37;11.35;;;9.15;;
23658;SDS011;12006;42.666;23.326;2023-06-22T03:34:02;10.88;;;9.77;;
23658;SDS011;12006;42.666;23.326;2023-06-22T03:36:28;12.23;;;9.95;;
23658;SDS011;12006;42.666;23.326;2023-06-22T03:38:53;11.73;;;10.18;;
23658;SDS011;12006;42.666;23.326;2023-06-22T03:41:19;11.23;;;9.93;;
23658;SDS011;12006;42.666;23.326;2023-06-22T03:43:45;10.85;;;8.75;;
23658;SDS011;12006;42.666;23.326;2023-06-22T03:46:10;13.20;;;9.63;;
23658;SDS011;12006;42.666;23.326;2023-06-22T03:48:35;14.02;;;9.05;;
23658;SDS011;12006;42.666;23.326;2023-06-22T03:51:01;10.88;;;9.63;;
23658;SDS011;12006;42.666;23.326;2023-06-22T03:53:28;13.18;;;9.95;;
23658;SDS011;12006;42.666;23.326;2023-06-22T03:55:53;11.43;;;9.75;;
23658;SDS011;12006;42.666;23.326;2023-06-22T03:58:19;10.95;;;9.77;;
23658;SDS011;12006;42.666;23.326;2023-06-22T04:00:49;11.52;;;9.77;;
23658;SDS011;12006;42.666;23.326;2023-06-22T04:03:15;11.18;;;10.00;;
23658;SDS011;12006;42.666;23.326;2023-06-22T04:05:41;11.98;;;10.18;;
23658;SDS011;12006;42.666;23.326;2023-06-22T04:08:07;12.20;;;10.90;;
23658;SDS011;12006;42.666;23.326;2023-06-22T04:10:32;12.10;;;10.98;;
23658;SDS011;12006;42.666;23.326;2023-06-22T04:12:58;11.07;;;9.98;;
23658;SDS011;12006;42.666;23.326;2023-06-22T04:15:23;11.43;;;10.23;;
23658;SDS011;12006;42.666;23.326;2023-06-22T04:17:48;12.32;;;10.65;;
23658;SDS011;12006;42.666;23.326;2023-06-22T04:20:14;15.35;;;10.15;;
23658;SDS011;12006;42.666;23.326;2023-06-22T04:22:39;9.88;;;8.88;;
23658;SDS011;12006;42.666;23.326;2023-06-22T04:25:05;11.20;;;10.10;;
23658;SDS011;12006;42.666;23.326;2023-06-22T04:27:32;11.65;;;10.45;;
23658;SDS011;12006;42.666;23.326;2023-06-22T04:30:02;11.23;;;10.20;;
23658;SDS011;12006;42.666;23.326;2023-06-22T04:32:34;11.02;;;9.82;;
23658;SDS011;12006;42.666;23.326;2023-06-22T04:35:01;10.63;;;9.63;;
23658;SDS011;12006;42.666;23.326;2023-06-22T04:37:31;11.30;;;9.75;;
23658;SDS011;12006;42.666;23.326;2023-06-22T04:39:57;11.60;;;10.50;;
23658;SDS011;12006;42.666;23.326;2023-06-22T04:42:22;10.68;;;9.65;;
23658;SDS011;12006;42.666;23.326;2023-06-22T04:44:47;11.77;;;10.68;;
23658;SDS011;12006;42.666;23.326;2023-06-22T04:47:13;11.23;;;9.93;;
23658;SDS011;12006;42.666;23.326;2023-06-22T04:49:38;10.93;;;9.82;;
23658;SDS011;12006;42.666;23.326;2023-06-22T04:52:06;12.38;;;10.90;;
23658;SDS011;12006;42.666;23.326;2023-06-22T04:54:33;11.32;;;10.25;;
23658;SDS011;12006;42.666;23.326;2023-06-22T04:57:03;12.90;;;11.43;;
23658;SDS011;12006;42.666;23.326;2023-06-22T04:59:30;12.43;;;10.98;;
23658;SDS011;12006;42.666;23.326;2023-06-22T05:01:57;12.18;;;10.88;;
23658;SDS011;12006;42.666;23.326;2023-06-22T05:04:23;12.38;;;10.85;;
23658;SDS011;12006;42.666;23.326;2023-06-22T05:06:50;12.05;;;10.88;;
23658;SDS011;12006;42.666;23.326;2023-06-22T05:09:17;11.23;;;10.13;;
23658;SDS011;12006;42.666;23.326;2023-06-22T05:11:43;11.75;;;10.07;;
23658;SDS011;12006;42.666;23.326;2023-06-22T05:14:09;9.50;;;8.50;;
23658;SDS011;12006;42.666;23.326;2023-06-22T05:16:34;11.65;;;10.25;;
23658;SDS011;12006;42.666;23.326;2023-06-22T05:19:01;9.88;;;8.93;;
23658;SDS011;12006;42.666;23.326;2023-06-22T05:21:28;10.02;;;8.93;;
23658;SDS011;12006;42.666;23.326;2023-06-22T05:23:54;12.07;;;9.50;;
23658;SDS011;12006;42.666;23.326;2023-06-22T05:26:21;10.15;;;8.73;;
23658;SDS011;12006;42.666;23.326;2023-06-22T05:28:47;10.52;;;9.40;;
23658;SDS011;12006;42.666;23.326;2023-06-22T05:31:16;11.07;;;9.55;;
23658;SDS011;12006;42.666;23.326;2023-06-22T05:33:43;9.88;;;8.98;;
23658;SDS011;12006;42.666;23.326;2023-06-22T05:36:09;12.88;;;9.73;;
23658;SDS011;12006;42.666;23.326;2023-06-22T05:38:35;9.63;;;8.73;;
23658;SDS011;12006;42.666;23.326;2023-06-22T05:41:01;10.40;;;9.40;;
23658;SDS011;12006;42.666;23.326;2023-06-22T05:43:27;11.20;;;9.55;;
23658;SDS011;12006;42.666;23.326;2023-06-22T05:45:52;10.23;;;9.23;;
23658;SDS011;12006;42.666;23.326;2023-06-22T05:48:18;11.25;;;10.00;;
23658;SDS011;12006;42.666;23.326;2023-06-22T05:50:43;11.57;;;10.38;;
23658;SDS011;12006;42.666;23.326;2023-06-22T05:53:09;11.55;;;10.35;;
23658;SDS011;12006;42.666;23.326;2023-06-22T05:55:34;12.00;;;10.57;;
23658;SDS011;12006;42.666;23.326;2023-06-22T05:58:00;13.25;;;10.70;;
23658;SDS011;12006;42.666;23.326;2023-06-22T06:00:25;12.05;;;10.85;;
23658;SDS011;12006;42.666;23.326;2023-06-22T06:02:51;11.85;;;10.10;;
23658;SDS011;12006;42.666;23.326;2023-06-22T06:05:16;11.57;;;10.27;;
23658;SDS011;12006;42.666;23.326;2023-06-22T06:07:42;11.50;;;10.40;;
23658;SDS011;12006;42.666;23.326;2023-06-22T06:10:08;10.80;;;9.70;;
23658;SDS011;12006;42.666;23.326;2023-06-22T06:12:34;10.45;;;9.45;;
23658;SDS011;12006;42.666;23.326;2023-06-22T06:14:59;11.90;;;10.13;;
23658;SDS011;12006;42.666;23.326;2023-06-22T06:17:24;11.00;;;9.25;;
23658;SDS011;12006;42.666;23.326;2023-06-22T06:19:50;11.15;;;10.05;;
23658;SDS011;12006;42.666;23.326;2023-06-22T06:22:15;11.75;;;9.10;;
23658;SDS011;12006;42.666;23.326;2023-06-22T06:24:40;9.95;;;8.95;;
23658;SDS011;12006;42.666;23.326;2023-06-22T06:27:06;10.77;;;9.50;;
23658;SDS011;12006;42.666;23.326;2023-06-22T06:29:31;9.88;;;8.93;;
23658;SDS011;12006;42.666;23.326;2023-06-22T06:31:57;11.20;;;10.00;;
23658;SDS011;12006;42.666;23.326;2023-06-22T06:34:22;11.00;;;9.43;;
23658;SDS011;12006;42.666;23.326;2023-06-22T06:36:48;10.52;;;9.52;;
23658;SDS011;12006;42.666;23.326;2023-06-22T06:39:13;9.95;;;8.77;;
23658;SDS011;12006;42.666;23.326;2023-06-22T06:41:39;11.77;;;10.68;;
23658;SDS011;12006;42.666;23.326;2023-06-22T06:44:04;12.43;;;11.23;;
23658;SDS011;12006;42.666;23.326;2023-06-22T06:46:30;10.55;;;9.48;;
23658;SDS011;12006;42.666;23.326;2023-06-22T06:48:55;11.70;;;10.57;;
23658;SDS011;12006;42.666;23.326;2023-06-22T06:51:21;9.77;;;8.85;;
23658;SDS011;12006;42.666;23.326;2023-06-22T06:53:46;24.98;;;22.45;;
23658;SDS011;12006;42.666;23.326;2023-06-22T06:56:11;12.15;;;11.02;;
23658;SDS011;12006;42.666;23.326;2023-06-22T06:58:38;10.60;;;9.65;;
23658;SDS011;12006;42.666;23.326;2023-06-22T07:01:07;10.30;;;8.85;;
23658;SDS011;12006;42.666;23.326;2023-06-22T07:03:32;9.90;;;8.93;;
23658;SDS011;12006;42.666;23.326;2023-06-22T07:05:58;15.73;;;14.05;;
23658;SDS011;12006;42.666;23.326;2023-06-22T07:08:24;15.43;;;13.90;;
23658;SDS011;12006;42.666;23.326;2023-06-22T07:10:49;15.70;;;13.00;;
23658;SDS011;12006;42.666;23.326;2023-06-22T07:13:14;9.32;;;8.52;;
23658;SDS011;12006;42.666;23.326;2023-06-22T07:15:40;9.82;;;8.90;;
23658;SDS011;12006;42.666;23.326;2023-06-22T07:18:05;11.90;;;9.90;;
23658;SDS011;12006;42.666;23.326;2023-06-22T07:20:30;9.75;;;8.85;;
23658;SDS011;12006;42.666;23.326;2023-06-22T07:22:56;11.25;;;9.13;;
23658;SDS011;12006;42.666;23.326;2023-06-22T07:25:23;11.55;;;10.35;;
23658;SDS011;12006;42.666;23.326;2023-06-22T07:28:04;10.25;;;9.25;;
23658;SDS011;12006;42.666;23.326;2023-06-22T07:30:32;9.57;;;8.68;;
23658;SDS011;12006;42.666;23.326;2023-06-22T07:32:58;9.45;;;8.55;;
23658;SDS011;12006;42.666;23.326;2023-06-22T07:35:28;10.13;;;9.23;;
23658;SDS011;12006;42.666;23.326;2023-06-22T07:37:54;10.02;;;9.02;;
23658;SDS011;12006;42.666;23.326;2023-06-22T07:40:19;9.77;;;8.88;;
23658;SDS011;12006;42.666;23.326;2023-06-22T07:42:45;11.25;;;9.38;;
23658;SDS011;12006;42.666;23.326;2023-06-22T07:45:13;9.65;;;8.80;;
23658;SDS011;12006;42.666;23.326;2023-06-22T07:47:38;10.85;;;9.75;;
23658;SDS011;12006;42.666;23.326;2023-06-22T07:50:04;10.18;;;9.27;;
23658;SDS011;12006;42.666;23.326;2023-06-22T07:52:30;11.82;;;8.57;;
23658;SDS011;12006;42.666;23.326;2023-06-22T07:54:56;9.80;;;8.48;;
23658;SDS011;12006;42.666;23.326;2023-06-22T07:57:21;9.35;;;8.43;;
23658;SDS011;12006;42.666;23.326;2023-06-22T07:59:47;9.15;;;8.32;;
23658;SDS011;12006;42.666;23.326;2023-06-22T08:02:12;10.13;;;9.07;;
23658;SDS011;12006;42.666;23.326;2023-06-22T08:04:38;9.68;;;8.77;;
23658;SDS011;12006;42.666;23.326;2023-06-22T08:07:04;10.13;;;9.02;;
23658;SDS011;12006;42.666;23.326;2023-06-22T08:09:30;9.20;;;8.40;;
23658;SDS011;12006;42.666;23.326;2023-06-22T08:11:57;9.73;;;8.90;;
23658;SDS011;12006;42.666;23.326;2023-06-22T08:14:25;9.05;;;8.30;;
23658;SDS011;12006;42.666;23.326;2023-06-22T08:16:52;10.18;;;9.07;;
23658;SDS011;12006;42.666;23.326;2023-06-22T08:19:17;9.43;;;8.52;;
23658;SDS011;12006;42.666;23.326;2023-06-22T08:21:43;9.45;;;8.55;;
23658;SDS011;12006;42.666;23.326;2023-06-22T08:24:08;10.18;;;9.27;;
23658;SDS011;12006;42.666;23.326;2023-06-22T08:26:34;9.65;;;8.75;;
23658;SDS011;12006;42.666;23.326;2023-06-22T08:29:04;9.77;;;8.88;;
23658;SDS011;12006;42.666;23.326;2023-06-22T08:31:30;9.57;;;8.68;;
23658;SDS011;12006;42.666;23.326;2023-06-22T08:33:58;9.77;;;8.88;;
23658;SDS011;12006;42.666;23.326;2023-06-22T08:36:23;9.48;;;8.57;;
23658;SDS011;12006;42.666;23.326;2023-06-22T08:38:49;8.93;;;8.13;;
23658;SDS011;12006;42.666;23.326;2023-06-22T08:41:16;10.07;;;9.18;;
23658;SDS011;12006;42.666;23.326;2023-06-22T08:43:42;8.38;;;7.68;;
23658;SDS011;12006;42.666;23.326;2023-06-22T08:46:09;9.18;;;8.38;;
23658;SDS011;12006;42.666;23.326;2023-06-22T08:48:35;10.27;;;8.50;;
23658;SDS011;12006;42.666;23.326;2023-06-22T08:51:00;8.43;;;7.68;;
23658;SDS011;12006;42.666;23.326;2023-06-22T08:53:25;9.77;;;8.90;;
23658;SDS011;12006;42.666;23.326;2023-06-22T08:55:51;10.88;;;9.88;;
23658;SDS011;12006;42.666;23.326;2023-06-22T08:58:16;9.18;;;8.38;;
23658;SDS011;12006;42.666;23.326;2023-06-22T09:00:43;8.63;;;7.82;;
23658;SDS011;12006;42.666;23.326;2023-06-22T09:03:08;7.97;;;7.28;;
23658;SDS011;12006;42.666;23.326;2023-06-22T09:05:34;8.23;;;7.45;;
23658;SDS011;12006;42.666;23.326;2023-06-22T09:07:59;7.72;;;7.13;;
23658;SDS011;12006;42.666;23.326;2023-06-22T09:10:25;8.40;;;7.00;;
23658;SDS011;12006;42.666;23.326;2023-06-22T09:12:50;7.60;;;6.90;;
23658;SDS011;12006;42.666;23.326;2023-06-22T09:15:16;7.80;;;7.13;;
23658;SDS011;12006;42.666;23.326;2023-06-22T09:17:41;7.00;;;6.22;;
23658;SDS011;12006;42.666;23.326;2023-06-22T09:20:07;7.53;;;6.93;;
23658;SDS011;12006;42.666;23.326;2023-06-22T09:22:35;7.05;;;6.45;;
23658;SDS011;12006;42.666;23.326;2023-06-22T09:25:01;7.35;;;6.75;;
23658;SDS011;12006;42.666;23.326;2023-06-22T09:27:27;7.60;;;7.00;;
23658;SDS011;12006;42.666;23.326;2023-06-22T09:29:53;7.55;;;6.88;;
23658;SDS011;12006;42.666;23.326;2023-06-22T09:32:18;7.45;;;6.75;;
23658;SDS011;12006;42.666;23.326;2023-06-22T09:34:43;7.43;;;6.82;;
23658;SDS011;12006;42.666;23.326;2023-06-22T09:37:09;8.48;;;7.78;;
23658;SDS011;12006;42.666;23.326;2023-06-22T09:39:34;7.13;;;6.43;;
23658;SDS011;12006;42.666;23.326;2023-06-22T09:42:01;7.35;;;6.65;;
23658;SDS011;12006;42.666;23.326;2023-06-22T09:44:26;8.15;;;7.32;;
23658;SDS011;12006;42.666;23.326;2023-06-22T09:46:51;7.85;;;7.15;;
23658;SDS011;12006;42.666;23.326;2023-06-22T09:49:17;9.02;;;7.80;;
23658;SDS011;12006;42.666;23.326;2023-06-22T09:51:42;8.00;;;7.22;;
23658;SDS011;12006;42.666;23.326;2023-06-22T09:54:08;7.72;;;7.05;;
23658;SDS011;12006;42.666;23.326;2023-06-22T09:56:33;8.73;;;7.93;;
23658;SDS011;12006;42.666;23.326;2023-06-22T09:58:58;8.70;;;8.00;;
23658;SDS011;12006;42.666;23.326;2023-06-22T10:01:24;8.18;;;7.50;;
23658;SDS011;12006;42.666;23.326;2023-06-22T10:03:49;8.00;;;7.30;;
23658;SDS011;12006;42.666;23.326;2023-06-22T10:06:19;7.88;;;7.18;;
23658;SDS011;12006;42.666;23.326;2023-06-22T10:08:45;8.10;;;7.40;;
23658;SDS011;12006;42.666;23.326;2023-06-22T10:11:10;7.72;;;7.13;;
23658;SDS011;12006;42.666;23.326;2023-06-22T10:13:35;8.77;;;7.97;;
23658;SDS011;12006;42.666;23.326;2023-06-22T10:16:01;10.23;;;9.18;;
23658;SDS011;12006;42.666;23.326;2023-06-22T10:18:26;8.20;;;7.40;;
23658;SDS011;12006;42.666;23.326;2023-06-22T10:20:52;7.85;;;7.22;;
23658;SDS011;12006;42.666;23.326;2023-06-22T10:23:18;8.55;;;7.85;;
23658;SDS011;12006;42.666;23.326;2023-06-22T10:25:44;7.82;;;7.18;;
23658;SDS011;12006;42.666;23.326;2023-06-22T10:28:09;7.72;;;7.03;;
23658;SDS011;12006;42.666;23.326;2023-06-22T10:30:35;8.52;;;7.82;;
23658;SDS011;12006;42.666;23.326;2023-06-22T10:33:00;8.07;;;7.47;;
23658;SDS011;12006;42.666;23.326;2023-06-22T10:35:25;8.32;;;7.63;;
23658;SDS011;12006;42.666;23.326;2023-06-22T10:37:51;9.32;;;8.57;;
23658;SDS011;12006;42.666;23.326;2023-06-22T10:40:16;10.30;;;9.40;;
23658;SDS011;12006;42.666;23.326;2023-06-22T10:42:43;8.80;;;8.02;;
23658;SDS011;12006;42.666;23.326;2023-06-22T10:45:09;8.38;;;7.70;;
23658;SDS011;12006;42.666;23.326;2023-06-22T10:47:35;8.20;;;7.50;;
23658;SDS011;12006;42.666;23.326;2023-06-22T10:50:00;8.88;;;8.18;;
23658;SDS011;12006;42.666;23.326;2023-06-22T10:52:26;8.63;;;7.82;;
23658;SDS011;12006;42.666;23.326;2023-06-22T10:54:52;9.02;;;8.25;;
23658;SDS011;12006;42.666;23.326;2023-06-22T10:57:17;9.57;;;8.70;;
23658;SDS011;12006;42.666;23.326;2023-06-22T10:59:43;9.35;;;8.55;;
23658;SDS011;12006;42.666;23.326;2023-06-22T11:02:08;8.82;;;8.02;;
23658;SDS011;12006;42.666;23.326;2023-06-22T11:04:34;8.18;;;7.38;;
23658;SDS011;12006;42.666;23.326;2023-06-22T11:07:00;8.18;;;7.47;;
23658;SDS011;12006;42.666;23.326;2023-06-22T11:09:25;8.10;;;7.40;;
23658;SDS011;12006;42.666;23.326;2023-06-22T11:11:51;7.90;;;7.22;;
23658;SDS011;12006;42.666;23.326;2023-06-22T11:14:19;8.40;;;7.63;;
23658;SDS011;12006;42.666;23.326;2023-06-22T11:16:45;7.82;;;7.13;;
23658;SDS011;12006;42.666;23.326;2023-06-22T11:19:11;7.25;;;6.65;;
23658;SDS011;12006;42.666;23.326;2023-06-22T11:21:36;8.18;;;7.40;;
23658;SDS011;12006;42.666;23.326;2023-06-22T11:24:02;7.63;;;7.00;;
23658;SDS011;12006;42.666;23.326;2023-06-22T11:26:27;7.38;;;6.72;;
23658;SDS011;12006;42.666;23.326;2023-06-22T11:28:53;7.82;;;7.13;;
23658;SDS011;12006;42.666;23.326;2023-06-22T11:31:18;7.28;;;6.68;;
23658;SDS011;12006;42.666;23.326;2023-06-22T11:33:44;8.02;;;7.22;;
23658;SDS011;12006;42.666;23.326;2023-06-22T11:36:13;7.50;;;6.90;;
23658;SDS011;12006;42.666;23.326;2023-06-22T11:38:39;7.65;;;7.05;;
23658;SDS011;12006;42.666;23.326;2023-06-22T11:41:05;9.18;;;8.35;;
23658;SDS011;12006;42.666;23.326;2023-06-22T11:43:31;7.72;;;7.13;;
23658;SDS011;12006;42.666;23.326;2023-06-22T11:45:56;7.30;;;6.75;;
23658;SDS011;12006;42.666;23.326;2023-06-22T11:48:23;8.23;;;7.53;;
23658;SDS011;12006;42.666;23.326;2023-06-22T11:50:49;9.13;;;8.32;;
23658;SDS011;12006;42.666;23.326;2023-06-22T11:53:14;7.97;;;7.38;;
23658;SDS011;12006;42.666;23.326;2023-06-22T11:55:41;8.40;;;7.60;;
23658;SDS011;12006;42.666;23.326;2023-06-22T11:58:07;7.43;;;6.72;;
23658;SDS011;12006;42.666;23.326;2023-06-22T12:00:33;8.85;;;8.07;;
23658;SDS011;12006;42.666;23.326;2023-06-22T12:02:58;7.47;;;6.88;;
23658;SDS011;12006;42.666;23.326;2023-06-22T12:05:24;7.70;;;7.07;;
23658;SDS011;12006;42.666;23.326;2023-06-22T12:07:50;10.20;;;9.30;;
23658;SDS011;12006;42.666;23.326;2023-06-22T12:10:17;8.35;;;7.65;;
23658;SDS011;12006;42.666;23.326;2023-06-22T12:12:43;7.72;;;7.13;;
23658;SDS011;12006;42.666;23.326;2023-06-22T12:15:09;7.65;;;6.90;;
23658;SDS011;12006;42.666;23.326;2023-06-22T12:17:35;8.88;;;7.72;;
23658;SDS011;12006;42.666;23.326;2023-06-22T12:20:00;8.10;;;7.40;;
23658;SDS011;12006;42.666;23.326;2023-06-22T12:22:27;8.65;;;7.80;;
23658;SDS011;12006;42.666;23.326;2023-06-22T12:24:52;8.20;;;7.53;;
23658;SDS011;12006;42.666;23.326;2023-06-22T12:27:18;9.35;;;8.50;;
23658;SDS011;12006;42.666;23.326;2023-06-22T12:29:46;9.30;;;8.50;;
23658;SDS011;12006;42.666;23.326;2023-06-22T12:32:12;9.73;;;8.80;;
23658;SDS011;12006;42.666;23.326;2023-06-22T12:34:38;8.45;;;7.75;;
23658;SDS011;12006;42.666;23.326;2023-06-22T12:37:05;7.97;;;7.30;;
23658;SDS011;12006;42.666;23.326;2023-06-22T12:39:33;8.70;;;7.85;;
23658;SDS011;12006;42.666;23.326;2023-06-22T12:41:58;9.25;;;7.38;;
23658;SDS011;12006;42.666;23.326;2023-06-22T12:44:24;9.93;;;8.93;;
23658;SDS011;12006;42.666;23.326;2023-06-22T12:46:49;7.90;;;7.20;;
23658;SDS011;12006;42.666;23.326;2023-06-22T12:49:15;8.25;;;7.32;;
23658;SDS011;12006;42.666;23.326;2023-06-22T12:51:40;7.25;;;6.55;;
23658;SDS011;12006;42.666;23.326;2023-06-22T12:54:09;7.82;;;7.20;;
23658;SDS011;12006;42.666;23.326;2023-06-22T12:56:36;7.60;;;7.00;;
23658;SDS011;12006;42.666;23.326;2023-06-22T12:59:02;9.23;;;8.43;;
23658;SDS011;12006;42.666;23.326;2023-06-22T13:01:28;7.63;;;6.85;;
23658;SDS011;12006;42.666;23.326;2023-06-22T13:03:55;9.88;;;7.57;;
23658;SDS011;12006;42.666;23.326;2023-06-22T13:06:21;9.43;;;7.72;;
23658;SDS011;12006;42.666;23.326;2023-06-22T13:08:46;10.60;;;8.70;;
23658;SDS011;12006;42.666;23.326;2023-06-22T13:11:12;9.70;;;8.20;;
23658;SDS011;12006;42.666;23.326;2023-06-22T13:13:38;9.70;;;8.70;;
23658;SDS011;12006;42.666;23.326;2023-06-22T13:16:04;11.07;;;8.57;;
23658;SDS011;12006;42.666;23.326;2023-06-22T13:18:29;10.63;;;9.65;;
23658;SDS011;12006;42.666;23.326;2023-06-22T13:20:54;9.52;;;8.55;;
23658;SDS011;12006;42.666;23.326;2023-06-22T13:23:20;9.40;;;8.30;;
23658;SDS011;12006;42.666;23.326;2023-06-22T13:25:46;9.65;;;8.75;;
23658;SDS011;12006;42.666;23.326;2023-06-22T13:28:12;11.57;;;10.38;;
23658;SDS011;12006;42.666;23.326;2023-06-22T13:30:39;11.35;;;10.18;;
23658;SDS011;12006;42.666;23.326;2023-06-22T13:33:05;12.38;;;8.88;;
23658;SDS011;12006;42.666;23.326;2023-06-22T13:35:30;10.00;;;9.00;;
23658;SDS011;12006;42.666;23.326;2023-06-22T13:37:56;9.25;;;8.45;;
23658;SDS011;12006;42.666;23.326;2023-06-22T13:40:21;9.38;;;8.48;;
23658;SDS011;12006;42.666;23.326;2023-06-22T13:42:47;9.45;;;8.55;;
23658;SDS011;12006;42.666;23.326;2023-06-22T13:45:12;8.85;;;8.10;;
23658;SDS011;12006;42.666;23.326;2023-06-22T13:47:38;10.07;;;9.10;;
23658;SDS011;12006;42.666;23.326;2023-06-22T13:50:03;10.05;;;9.05;;
23658;SDS011;12006;42.666;23.326;2023-06-22T13:52:29;10.70;;;9.60;;
23658;SDS011;12006;42.666;23.326;2023-06-22T13:54:54;11.77;;;10.10;;
23658;SDS011;12006;42.666;23.326;2023-06-22T13:57:20;12.15;;;10.38;;
23658;SDS011;12006;42.666;23.326;2023-06-22T13:59:45;10.68;;;9.45;;
23658;SDS011;12006;42.666;23.326;2023-06-22T14:02:11;14.40;;;10.32;;
23658;SDS011;12006;42.666;23.326;2023-06-22T14:04:36;11.52;;;10.32;;
23658;SDS011;12006;42.666;23.326;2023-06-22T14:07:02;11.50;;;10.43;;
23658;SDS011;12006;42.666;23.326;2023-06-22T14:09:27;11.95;;;10.68;;
23658;SDS011;12006;42.666;23.326;2023-06-22T14:11:53;10.60;;;9.48;;
23658;SDS011;12006;42.666;23.326;2023-06-22T14:14:20;15.30;;;11.05;;
23658;SDS011;12006;42.666;23.326;2023-06-22T14:16:45;11.20;;;10.10;;
23658;SDS011;12006;42.666;23.326;2023-06-22T14:19:11;10.52;;;9.43;;
23658;SDS011;12006;42.666;23.326;2023-06-22T14:21:36;10.70;;;9.23;;
23658;SDS011;12006;42.666;23.326;2023-06-22T14:24:01;12.23;;;10.65;;
23658;SDS011;12006;42.666;23.326;2023-06-22T14:26:27;12.52;;;10.15;;
23658;SDS011;12006;42.666;23.326;2023-06-22T14:28:52;10.68;;;9.65;;
23658;SDS011;12006;42.666;23.326;2023-06-22T14:31:18;11.38;;;10.25;;